sensor_id;sensor_type;location;lat;lon;timestamp;pressure;altitude;pressure_sealevel;temperature;humidity
84267;BME280;74414;51.098;13.716;2024-03-25T00:01:29;98407.81;;;4.84;77.84
84267;BME280;74414;51.098;13.716;2024-03-25T00:03:54;98415.28;;;4.84;77.96
84267;BME280;74414;51.098;13.716;2024-03-25T00:06:20;98406.31;;;4.87;77.88
84267;BME280;74414;51.098;13.716;2024-03-25T00:08:45;98411.06;;;4.90;77.93
84267;BME280;74414;51.098;13.716;2024-03-25T00:11:10;98423.97;;;4.89;77.98
84267;BME280;74414;51.098;13.716;2024-03-25T00:13:36;98422.84;;;4.94;77.85
84267;BME280;74414;51.098;13.716;2024-03-25T00:16:01;98421.75;;;4.98;78.19
84267;BME280;74414;51.098;13.716;2024-03-25T00:18:26;98432.69;;;4.95;78.08
84267;BME280;74414;51.098;13.716;2024-03-25T00:20:52;98436.88;;;4.89;78.56
84267;BME280;74414;51.098;13.716;2024-03-25T00:23:17;98441.47;;;4.81;78.83
84267;BME280;74414;51.098;13.716;2024-03-25T00:25:43;98438.88;;;4.66;79.91
84267;BME280;74414;51.098;13.716;2024-03-25T00:28:08;98433.56;;;4.53;80.47
84267;BME280;74414;51.098;13.716;2024-03-25T00:30:33;98436.63;;;4.48;81.33
84267;BME280;74414;51.098;13.716;2024-03-25T00:32:59;98442.81;;;4.45;81.73
84267;BME280;74414;51.098;13.716;2024-03-25T00:35:24;98438.06;;;4.42;81.79
84267;BME280;74414;51.098;13.716;2024-03-25T00:37:50;98434.09;;;4.40;82.28
84267;BME280;74414;51.098;13.716;2024-03-25T00:40:15;98442.28;;;4.36;82.54
84267;BME280;74414;51.098;13.716;2024-03-25T00:42:40;98443.44;;;4.35;82.79
84267;BME280;74414;51.098;13.716;2024-03-25T00:45:06;98428.13;;;4.34;82.29
84267;BME280;74414;51.098;13.716;2024-03-25T00:47:32;98427.72;;;4.32;82.53
84267;BME280;74414;51.098;13.716;2024-03-25T00:49:58;98420.59;;;4.28;82.62
84267;BME280;74414;51.098;13.716;2024-03-25T00:52:23;98433.50;;;4.27;82.72
84267;BME280;74414;51.098;13.716;2024-03-25T00:54:48;98438.19;;;4.27;82.72
84267;BME280;74414;51.098;13.716;2024-03-25T00:57:13;98434.31;;;4.28;82.53
84267;BME280;74414;51.098;13.716;2024-03-25T00:59:39;98429.59;;;4.28;82.59
84267;BME280;74414;51.098;13.716;2024-03-25T01:02:05;98429.69;;;4.32;83.27
84267;BME280;74414;51.098;13.716;2024-03-25T01:04:30;98434.00;;;4.33;83.34
84267;BME280;74414;51.098;13.716;2024-03-25T01:06:56;98432.75;;;4.30;83.67
84267;BME280;74414;51.098;13.716;2024-03-25T01:09:22;98439.84;;;4.31;83.71
84267;BME280;74414;51.098;13.716;2024-03-25T01:11:48;98433.63;;;4.34;84.13
84267;BME280;74414;51.098;13.716;2024-03-25T01:14:13;98443.06;;;4.37;84.14
84267;BME280;74414;51.098;13.716;2024-03-25T01:16:38;98440.75;;;4.39;84.34
84267;BME280;74414;51.098;13.716;2024-03-25T01:19:04;98436.06;;;4.39;84.22
84267;BME280;74414;51.098;13.716;2024-03-25T01:21:29;98439.25;;;4.41;84.49
84267;BME280;74414;51.098;13.716;2024-03-25T01:23:55;98445.16;;;4.43;84.08
84267;BME280;74414;51.098;13.716;2024-03-25T01:26:21;98441.25;;;4.44;84.22
84267;BME280;74414;51.098;13.716;2024-03-25T01:28:47;98445.16;;;4.43;84.41
84267;BME280;74414;51.098;13.716;2024-03-25T01:31:12;98443.25;;;4.47;83.66
84267;BME280;74414;51.098;13.716;2024-03-25T01:33:37;98454.63;;;4.49;83.02
84267;BME280;74414;51.098;13.716;2024-03-25T01:36:03;98449.53;;;4.48;82.61
84267;BME280;74414;51.098;13.716;2024-03-25T01:38:29;98455.38;;;4.46;82.09
84267;BME280;74414;51.098;13.716;2024-03-25T01:40:54;98447.91;;;4.43;81.95
84267;BME280;74414;51.098;13.716;2024-03-25T01:43:22;98461.59;;;4.43;81.82
84267;BME280;74414;51.098;13.716;2024-03-25T01:45:47;98460.38;;;4.41;81.57
84267;BME280;74414;51.098;13.716;2024-03-25T01:48:12;98469.66;;;4.36;81.85
84267;BME280;74414;51.098;13.716;2024-03-25T01:50:43;98471.97;;;4.34;82.43
84267;BME280;74414;51.098;13.716;2024-03-25T01:53:11;98471.13;;;4.30;82.38
84267;BME280;74414;51.098;13.716;2024-03-25T01:55:37;98479.34;;;4.30;82.70
84267;BME280;74414;51.098;13.716;2024-03-25T01:58:05;98488.72;;;4.29;82.86
84267;BME280;74414;51.098;13.716;2024-03-25T02:00:31;98483.09;;;4.22;82.07
84267;BME280;74414;51.098;13.716;2024-03-25T02:02:57;98476.41;;;4.20;82.01
84267;BME280;74414;51.098;13.716;2024-03-25T02:05:23;98472.06;;;4.19;82.14
84267;BME280;74414;51.098;13.716;2024-03-25T02:07:49;98472.44;;;4.17;82.62
84267;BME280;74414;51.098;13.716;2024-03-25T02:10:15;98479.00;;;4.13;82.38
84267;BME280;74414;51.098;13.716;2024-03-25T02:12:42;98484.03;;;4.11;83.05
84267;BME280;74414;51.098;13.716;2024-03-25T02:15:09;98480.91;;;4.09;83.33
84267;BME280;74414;51.098;13.716;2024-03-25T02:17:36;98485.59;;;4.08;83.64
84267;BME280;74414;51.098;13.716;2024-03-25T02:20:02;98482.47;;;4.10;83.60
84267;BME280;74414;51.098;13.716;2024-03-25T02:22:29;98482.47;;;4.10;83.88
84267;BME280;74414;51.098;13.716;2024-03-25T02:24:56;98486.13;;;4.17;84.09
84267;BME280;74414;51.098;13.716;2024-03-25T02:27:23;98486.56;;;4.19;84.02
84267;BME280;74414;51.098;13.716;2024-03-25T02:29:50;98487.44;;;4.23;84.13
84267;BME280;74414;51.098;13.716;2024-03-25T02:32:16;98494.16;;;4.26;83.95
84267;BME280;74414;51.098;13.716;2024-03-25T02:34:47;98495.34;;;4.28;83.70
84267;BME280;74414;51.098;13.716;2024-03-25T02:37:13;98496.22;;;4.32;83.42
84267;BME280;74414;51.098;13.716;2024-03-25T02:39:39;98491.59;;;4.36;83.56
84267;BME280;74414;51.098;13.716;2024-03-25T02:42:05;98493.09;;;4.34;83.73
84267;BME280;74414;51.098;13.716;2024-03-25T02:44:31;98500.97;;;4.35;84.02
84267;BME280;74414;51.098;13.716;2024-03-25T02:46:58;98497.06;;;4.36;84.36
84267;BME280;74414;51.098;13.716;2024-03-25T02:49:23;98500.19;;;4.35;84.37
84267;BME280;74414;51.098;13.716;2024-03-25T02:51:49;98510.28;;;4.31;84.94
84267;BME280;74414;51.098;13.716;2024-03-25T02:54:15;98509.47;;;4.30;85.32
84267;BME280;74414;51.098;13.716;2024-03-25T02:56:41;98521.59;;;4.29;85.32
84267;BME280;74414;51.098;13.716;2024-03-25T02:59:06;98506.25;;;4.25;85.50
84267;BME280;74414;51.098;13.716;2024-03-25T03:01:32;98510.16;;;4.24;85.60
84267;BME280;74414;51.098;13.716;2024-03-25T03:03:58;98518.00;;;4.25;85.83
84267;BME280;74414;51.098;13.716;2024-03-25T03:06:23;98518.81;;;4.26;85.94
84267;BME280;74414;51.098;13.716;2024-03-25T03:08:49;98536.09;;;4.30;85.78
84267;BME280;74414;51.098;13.716;2024-03-25T03:11:14;98540.06;;;4.32;85.35
84267;BME280;74414;51.098;13.716;2024-03-25T03:13:40;98531.13;;;4.35;85.32
84267;BME280;74414;51.098;13.716;2024-03-25T03:16:06;98544.81;;;4.35;85.45
84267;BME280;74414;51.098;13.716;2024-03-25T03:18:31;98544.81;;;4.35;85.46
84267;BME280;74414;51.098;13.716;2024-03-25T03:20:57;98538.97;;;4.37;85.51
84267;BME280;74414;51.098;13.716;2024-03-25T03:23:22;98551.88;;;4.36;85.48
84267;BME280;74414;51.098;13.716;2024-03-25T03:25:48;98548.00;;;4.37;85.23
84267;BME280;74414;51.098;13.716;2024-03-25T03:28:14;98556.28;;;4.41;85.17
84267;BME280;74414;51.098;13.716;2024-03-25T03:30:40;98550.78;;;4.41;84.47
84267;BME280;74414;51.098;13.716;2024-03-25T03:33:06;98559.38;;;4.39;84.38
84267;BME280;74414;51.098;13.716;2024-03-25T03:35:34;98559.81;;;4.41;84.39
84267;BME280;74414;51.098;13.716;2024-03-25T03:38:00;98563.69;;;4.40;84.07
84267;BME280;74414;51.098;13.716;2024-03-25T03:40:26;98569.19;;;4.40;84.01
84267;BME280;74414;51.098;13.716;2024-03-25T03:42:51;98565.31;;;4.41;83.76
84267;BME280;74414;51.098;13.716;2024-03-25T03:45:17;98576.25;;;4.41;83.72
84267;BME280;74414;51.098;13.716;2024-03-25T03:47:42;98573.84;;;4.40;83.85
84267;BME280;74414;51.098;13.716;2024-03-25T03:50:09;98579.72;;;4.38;83.07
84267;BME280;74414;51.098;13.716;2024-03-25T03:52:35;98579.34;;;4.40;82.74
84267;BME280;74414;51.098;13.716;2024-03-25T03:55:00;98566.44;;;4.40;82.66
84267;BME280;74414;51.098;13.716;2024-03-25T03:57:26;98566.88;;;4.42;82.11
84267;BME280;74414;51.098;13.716;2024-03-25T03:59:52;98579.34;;;4.40;81.71
84267;BME280;74414;51.098;13.716;2024-03-25T04:02:17;98589.09;;;4.37;82.25
84267;BME280;74414;51.098;13.716;2024-03-25T04:04:43;98585.94;;;4.35;82.60
84267;BME280;74414;51.098;13.716;2024-03-25T04:07:08;98578.47;;;4.36;82.63
84267;BME280;74414;51.098;13.716;2024-03-25T04:09:34;98579.28;;;4.36;83.11
84267;BME280;74414;51.098;13.716;2024-03-25T04:11:59;98589.53;;;4.39;82.28
84267;BME280;74414;51.098;13.716;2024-03-25T04:14:26;98594.28;;;4.42;81.47
84267;BME280;74414;51.098;13.716;2024-03-25T04:16:51;98595.06;;;4.43;81.61
84267;BME280;74414;51.098;13.716;2024-03-25T04:19:19;98605.25;;;4.42;82.05
84267;BME280;74414;51.098;13.716;2024-03-25T04:21:44;98612.31;;;4.43;82.33
84267;BME280;74414;51.098;13.716;2024-03-25T04:24:09;98607.69;;;4.47;81.96
84267;BME280;74414;51.098;13.716;2024-03-25T04:26:35;98608.47;;;4.48;81.69
84267;BME280;74414;51.098;13.716;2024-03-25T04:29:00;98613.16;;;4.47;81.73
84267;BME280;74414;51.098;13.716;2024-03-25T04:31:25;98622.19;;;4.48;81.28
84267;BME280;74414;51.098;13.716;2024-03-25T04:33:50;98626.53;;;4.49;81.04
84267;BME280;74414;51.098;13.716;2024-03-25T04:36:16;98620.69;;;4.50;80.81
84267;BME280;74414;51.098;13.716;2024-03-25T04:38:41;98632.00;;;4.49;81.08
84267;BME280;74414;51.098;13.716;2024-03-25T04:41:06;98642.16;;;4.48;81.38
84267;BME280;74414;51.098;13.716;2024-03-25T04:43:31;98644.91;;;4.48;81.39
84267;BME280;74414;51.098;13.716;2024-03-25T04:46:00;98646.84;;;4.48;81.03
84267;BME280;74414;51.098;13.716;2024-03-25T04:48:26;98647.22;;;4.46;81.01
84267;BME280;74414;51.098;13.716;2024-03-25T04:50:51;98651.47;;;4.44;80.84
84267;BME280;74414;51.098;13.716;2024-03-25T04:53:16;98659.84;;;4.51;80.01
84267;BME280;74414;51.098;13.716;2024-03-25T04:55:41;98660.13;;;4.46;79.79
84267;BME280;74414;51.098;13.716;2024-03-25T04:58:07;98654.28;;;4.47;79.71
84267;BME280;74414;51.098;13.716;2024-03-25T05:00:32;98662.94;;;4.49;79.34
84267;BME280;74414;51.098;13.716;2024-03-25T05:02:57;98659.03;;;4.50;79.01
84267;BME280;74414;51.098;13.716;2024-03-25T05:05:23;98668.34;;;4.46;79.72
84267;BME280;74414;51.098;13.716;2024-03-25T05:07:49;98673.03;;;4.45;79.69
84267;BME280;74414;51.098;13.716;2024-03-25T05:10:14;98676.63;;;4.49;79.15
84267;BME280;74414;51.098;13.716;2024-03-25T05:12:40;98675.94;;;4.52;78.95
84267;BME280;74414;51.098;13.716;2024-03-25T05:15:05;98682.56;;;4.51;78.85
84267;BME280;74414;51.098;13.716;2024-03-25T05:17:31;98692.00;;;4.54;78.87
84267;BME280;74414;51.098;13.716;2024-03-25T05:19:56;98695.19;;;4.56;79.28
84267;BME280;74414;51.098;13.716;2024-03-25T05:22:21;98687.31;;;4.54;80.09
84267;BME280;74414;51.098;13.716;2024-03-25T05:24:47;98700.53;;;4.49;80.59
84267;BME280;74414;51.098;13.716;2024-03-25T05:27:12;98698.13;;;4.47;81.32
84267;BME280;74414;51.098;13.716;2024-03-25T05:29:37;98702.41;;;4.45;80.94
84267;BME280;74414;51.098;13.716;2024-03-25T05:32:03;98713.00;;;4.46;81.32
84267;BME280;74414;51.098;13.716;2024-03-25T05:34:29;98706.28;;;4.44;81.20
84267;BME280;74414;51.098;13.716;2024-03-25T05:36:54;98712.13;;;4.42;81.19
84267;BME280;74414;51.098;13.716;2024-03-25T05:39:20;98714.06;;;4.42;81.45
84267;BME280;74414;51.098;13.716;2024-03-25T05:41:45;98712.13;;;4.42;81.58
84267;BME280;74414;51.098;13.716;2024-03-25T05:44:11;98716.47;;;4.43;81.07
84267;BME280;74414;51.098;13.716;2024-03-25T05:46:36;98717.75;;;4.49;81.26
84267;BME280;74414;51.098;13.716;2024-03-25T05:49:02;98722.97;;;4.54;80.07
84267;BME280;74414;51.098;13.716;2024-03-25T05:51:29;98721.44;;;4.57;79.57
84267;BME280;74414;51.098;13.716;2024-03-25T05:53:54;98735.69;;;4.63;79.55
84267;BME280;74414;51.098;13.716;2024-03-25T05:56:19;98731.06;;;4.67;78.38
84267;BME280;74414;51.098;13.716;2024-03-25T05:58:45;98736.88;;;4.65;78.09
84267;BME280;74414;51.098;13.716;2024-03-25T06:01:10;98743.31;;;4.73;79.17
84267;BME280;74414;51.098;13.716;2024-03-25T06:03:36;98740.00;;;4.83;79.45
84267;BME280;74414;51.098;13.716;2024-03-25T06:06:01;98741.00;;;4.94;78.60
84267;BME280;74414;51.098;13.716;2024-03-25T06:08:26;98738.81;;;4.99;77.27
84267;BME280;74414;51.098;13.716;2024-03-25T06:10:52;98739.63;;;5.03;77.16
84267;BME280;74414;51.098;13.716;2024-03-25T06:13:18;98755.19;;;5.15;76.94
84267;BME280;74414;51.098;13.716;2024-03-25T06:15:43;98751.84;;;5.25;77.17
84267;BME280;74414;51.098;13.716;2024-03-25T06:18:09;98756.31;;;5.33;75.91
84267;BME280;74414;51.098;13.716;2024-03-25T06:20:34;98761.31;;;5.27;75.43
84267;BME280;74414;51.098;13.716;2024-03-25T06:22:59;98765.22;;;5.26;75.80
84267;BME280;74414;51.098;13.716;2024-03-25T06:25:25;98774.66;;;5.29;75.86
84267;BME280;74414;51.098;13.716;2024-03-25T06:27:50;98773.50;;;5.30;75.42
84267;BME280;74414;51.098;13.716;2024-03-25T06:30:15;98776.59;;;5.28;75.41
84267;BME280;74414;51.098;13.716;2024-03-25T06:32:59;98777.75;;;5.27;75.43
84267;BME280;74414;51.098;13.716;2024-03-25T06:35:44;98778.56;;;5.28;75.53
84267;BME280;74414;51.098;13.716;2024-03-25T06:38:10;98780.16;;;5.29;75.18
84267;BME280;74414;51.098;13.716;2024-03-25T06:40:36;98795.91;;;5.32;75.19
84267;BME280;74414;51.098;13.716;2024-03-25T06:43:01;98793.59;;;5.34;75.17
84267;BME280;74414;51.098;13.716;2024-03-25T06:45:26;98797.53;;;5.36;74.61
84267;BME280;74414;51.098;13.716;2024-03-25T06:47:52;98796.78;;;5.36;74.41
84267;BME280;74414;51.098;13.716;2024-03-25T06:50:17;98801.59;;;5.42;74.79
84267;BME280;74414;51.098;13.716;2024-03-25T06:52:43;98804.84;;;5.48;73.78
84267;BME280;74414;51.098;13.716;2024-03-25T06:55:08;98802.69;;;5.57;73.70
84267;BME280;74414;51.098;13.716;2024-03-25T06:57:33;98807.53;;;5.67;73.31
84267;BME280;74414;51.098;13.716;2024-03-25T06:59:59;98808.84;;;5.73;72.49
84267;BME280;74414;51.098;13.716;2024-03-25T07:02:24;98813.03;;;5.67;72.86
84267;BME280;74414;51.098;13.716;2024-03-25T07:04:50;98805.31;;;5.73;71.78
84267;BME280;74414;51.098;13.716;2024-03-25T07:07:15;98809.50;;;5.86;71.47
84267;BME280;74414;51.098;13.716;2024-03-25T07:09:40;98812.56;;;6.03;71.05
84267;BME280;74414;51.098;13.716;2024-03-25T07:12:06;98822.59;;;6.15;70.44
84267;BME280;74414;51.098;13.716;2024-03-25T07:14:32;98830.75;;;6.11;70.36
84267;BME280;74414;51.098;13.716;2024-03-25T07:16:57;98833.50;;;6.11;70.64
84267;BME280;74414;51.098;13.716;2024-03-25T07:19:22;98838.56;;;6.09;71.10
84267;BME280;74414;51.098;13.716;2024-03-25T07:21:48;98838.66;;;6.13;71.49
84267;BME280;74414;51.098;13.716;2024-03-25T07:24:13;98848.53;;;6.17;71.35
84267;BME280;74414;51.098;13.716;2024-03-25T07:26:38;98853.00;;;6.25;71.25
84267;BME280;74414;51.098;13.716;2024-03-25T07:29:04;98854.59;;;6.26;70.76
84267;BME280;74414;51.098;13.716;2024-03-25T07:31:29;98854.09;;;6.43;70.41
84267;BME280;74414;51.098;13.716;2024-03-25T07:33:54;98854.47;;;6.42;69.02
84267;BME280;74414;51.098;13.716;2024-03-25T07:36:20;98854.53;;;6.46;68.90
84267;BME280;74414;51.098;13.716;2024-03-25T07:38:45;98862.28;;;6.40;69.46
84267;BME280;74414;51.098;13.716;2024-03-25T07:41:10;98865.16;;;6.47;69.50
84267;BME280;74414;51.098;13.716;2024-03-25T07:43:36;98866.59;;;6.64;68.96
84267;BME280;74414;51.098;13.716;2024-03-25T07:46:01;98862.06;;;6.75;68.99
84267;BME280;74414;51.098;13.716;2024-03-25T07:48:27;98870.50;;;6.89;67.55
84267;BME280;74414;51.098;13.716;2024-03-25T07:50:52;98870.84;;;6.84;68.14
84267;BME280;74414;51.098;13.716;2024-03-25T07:53:17;98870.47;;;6.85;67.84
84267;BME280;74414;51.098;13.716;2024-03-25T07:55:43;98885.75;;;6.83;66.90
84267;BME280;74414;51.098;13.716;2024-03-25T07:58:08;98881.22;;;6.94;67.59
84267;BME280;74414;51.098;13.716;2024-03-25T08:00:34;98883.75;;;7.06;66.16
84267;BME280;74414;51.098;13.716;2024-03-25T08:03:00;98888.81;;;7.30;66.69
84267;BME280;74414;51.098;13.716;2024-03-25T08:05:26;98892.88;;;7.40;65.10
84267;BME280;74414;51.098;13.716;2024-03-25T08:07:51;98888.34;;;7.54;65.01
84267;BME280;74414;51.098;13.716;2024-03-25T08:10:17;98890.59;;;7.75;64.32
84267;BME280;74414;51.098;13.716;2024-03-25T08:12:42;98900.69;;;8.00;63.22
84267;BME280;74414;51.098;13.716;2024-03-25T08:15:08;98902.53;;;8.22;62.00
84267;BME280;74414;51.098;13.716;2024-03-25T08:17:33;98902.81;;;8.14;63.01
84267;BME280;74414;51.098;13.716;2024-03-25T08:19:58;98896.66;;;7.91;62.72
84267;BME280;74414;51.098;13.716;2024-03-25T08:22:23;98899.88;;;7.96;62.29
84267;BME280;74414;51.098;13.716;2024-03-25T08:24:49;98911.84;;;8.11;62.59
84267;BME280;74414;51.098;13.716;2024-03-25T08:27:14;98909.81;;;8.04;62.02
84267;BME280;74414;51.098;13.716;2024-03-25T08:29:40;98914.97;;;8.06;62.12
84267;BME280;74414;51.098;13.716;2024-03-25T08:32:06;98919.22;;;8.00;61.76
84267;BME280;74414;51.098;13.716;2024-03-25T08:34:31;98915.84;;;8.13;62.26
84267;BME280;74414;51.098;13.716;2024-03-25T08:36:56;98923.09;;;8.25;61.87
84267;BME280;74414;51.098;13.716;2024-03-25T08:39:22;98916.75;;;8.24;62.21
84267;BME280;74414;51.098;13.716;2024-03-25T08:41:47;98925.31;;;8.19;62.89
84267;BME280;74414;51.098;13.716;2024-03-25T08:44:12;98931.28;;;7.88;61.88
84267;BME280;74414;51.098;13.716;2024-03-25T08:46:39;98931.81;;;7.68;63.07
84267;BME280;74414;51.098;13.716;2024-03-25T08:49:04;98916.38;;;7.60;62.39
84267;BME280;74414;51.098;13.716;2024-03-25T08:51:30;98924.09;;;7.80;61.91
84267;BME280;74414;51.098;13.716;2024-03-25T08:53:55;98914.59;;;7.74;62.15
84267;BME280;74414;51.098;13.716;2024-03-25T08:56:20;98926.09;;;7.83;62.00
84267;BME280;74414;51.098;13.716;2024-03-25T08:58:46;98929.53;;;8.06;62.31
84267;BME280;74414;51.098;13.716;2024-03-25T09:01:11;98937.56;;;8.22;62.09
84267;BME280;74414;51.098;13.716;2024-03-25T09:03:40;98940.41;;;8.25;61.16
84267;BME280;74414;51.098;13.716;2024-03-25T09:06:06;98937.94;;;8.17;60.23
84267;BME280;74414;51.098;13.716;2024-03-25T09:08:33;98938.63;;;8.10;61.27
84267;BME280;74414;51.098;13.716;2024-03-25T09:11:18;98952.25;;;7.96;61.26
84267;BME280;74414;51.098;13.716;2024-03-25T09:13:43;98960.28;;;8.08;62.01
84267;BME280;74414;51.098;13.716;2024-03-25T09:16:09;98966.44;;;7.98;62.16
84267;BME280;74414;51.098;13.716;2024-03-25T09:18:34;98959.28;;;7.90;61.94
84267;BME280;74414;51.098;13.716;2024-03-25T09:21:00;98967.53;;;7.90;62.27
84267;BME280;74414;51.098;13.716;2024-03-25T09:23:25;98964.03;;;7.93;62.32
84267;BME280;74414;51.098;13.716;2024-03-25T09:25:51;98972.47;;;8.07;61.14
84267;BME280;74414;51.098;13.716;2024-03-25T09:28:17;98966.94;;;8.04;61.00
84267;BME280;74414;51.098;13.716;2024-03-25T09:30:43;98976.03;;;8.41;61.69
84267;BME280;74414;51.098;13.716;2024-03-25T09:33:09;98981.81;;;8.66;59.89
84267;BME280;74414;51.098;13.716;2024-03-25T09:35:34;98979.06;;;8.66;58.57
84267;BME280;74414;51.098;13.716;2024-03-25T09:37:59;98981.25;;;8.90;59.12
84267;BME280;74414;51.098;13.716;2024-03-25T09:40:25;98985.31;;;9.06;57.38
84267;BME280;74414;51.098;13.716;2024-03-25T09:42:56;98991.69;;;9.10;57.42
84267;BME280;74414;51.098;13.716;2024-03-25T09:45:24;98995.09;;;8.93;57.40
84267;BME280;74414;51.098;13.716;2024-03-25T09:47:51;98977.31;;;8.91;56.56
84267;BME280;74414;51.098;13.716;2024-03-25T09:50:17;98980.03;;;9.31;56.91
84267;BME280;74414;51.098;13.716;2024-03-25T09:52:48;98980.91;;;10.14;53.72
84267;BME280;74414;51.098;13.716;2024-03-25T09:55:14;98989.78;;;11.46;50.72
84267;BME280;74414;51.098;13.716;2024-03-25T09:57:39;98978.34;;;11.20;50.07
84267;BME280;74414;51.098;13.716;2024-03-25T10:00:07;98990.50;;;10.52;51.65
84267;BME280;74414;51.098;13.716;2024-03-25T10:02:34;98996.19;;;9.97;53.87
84267;BME280;74414;51.098;13.716;2024-03-25T10:05:01;98992.13;;;9.74;55.20
84267;BME280;74414;51.098;13.716;2024-03-25T10:07:28;98993.69;;;9.68;54.26
84267;BME280;74414;51.098;13.716;2024-03-25T10:09:54;99004.97;;;9.45;55.27
84267;BME280;74414;51.098;13.716;2024-03-25T10:12:19;99005.06;;;9.08;55.55
84267;BME280;74414;51.098;13.716;2024-03-25T10:14:45;99011.75;;;9.04;55.68
84267;BME280;74414;51.098;13.716;2024-03-25T10:17:10;99004.53;;;8.89;56.25
84267;BME280;74414;51.098;13.716;2024-03-25T10:19:36;99001.03;;;8.99;57.12
84267;BME280;74414;51.098;13.716;2024-03-25T10:22:03;99001.13;;;9.06;56.33
84267;BME280;74414;51.098;13.716;2024-03-25T10:24:49;99010.34;;;9.24;55.50
84267;BME280;74414;51.098;13.716;2024-03-25T10:29:51;99010.91;;;9.47;54.69
84267;BME280;74414;51.098;13.716;2024-03-25T10:32:17;99006.88;;;9.34;54.96
84267;BME280;74414;51.098;13.716;2024-03-25T10:34:42;99005.56;;;9.18;56.23
84267;BME280;74414;51.098;13.716;2024-03-25T10:37:09;98998.88;;;9.22;55.82
84267;BME280;74414;51.098;13.716;2024-03-25T10:39:39;99006.66;;;9.60;55.05
84267;BME280;74414;51.098;13.716;2024-03-25T10:42:07;99007.25;;;9.97;53.64
84267;BME280;74414;51.098;13.716;2024-03-25T10:44:33;99010.63;;;10.35;52.80
84267;BME280;74414;51.098;13.716;2024-03-25T10:47:03;98999.63;;;10.52;52.07
84267;BME280;74414;51.098;13.716;2024-03-25T10:52:02;99000.38;;;10.49;52.39
84267;BME280;74414;51.098;13.716;2024-03-25T10:54:30;99004.28;;;10.34;53.06
84267;BME280;74414;51.098;13.716;2024-03-25T10:56:58;99008.19;;;10.23;53.37
84267;BME280;74414;51.098;13.716;2024-03-25T10:59:24;99004.03;;;9.81;53.32
84267;BME280;74414;51.098;13.716;2024-03-25T11:01:50;99005.41;;;9.51;53.37
84267;BME280;74414;51.098;13.716;2024-03-25T11:04:15;99011.00;;;9.61;54.38
84267;BME280;74414;51.098;13.716;2024-03-25T11:06:41;99018.53;;;9.64;53.90
84267;BME280;74414;51.098;13.716;2024-03-25T11:09:06;99001.88;;;9.54;54.94
84267;BME280;74414;51.098;13.716;2024-03-25T11:11:33;99015.06;;;9.78;53.52
84267;BME280;74414;51.098;13.716;2024-03-25T11:13:59;99008.25;;;9.61;54.22
84267;BME280;74414;51.098;13.716;2024-03-25T11:16:30;98995.66;;;9.71;53.52
84267;BME280;74414;51.098;13.716;2024-03-25T11:19:02;98999.63;;;9.70;54.67
84267;BME280;74414;51.098;13.716;2024-03-25T11:21:27;99003.97;;;9.71;52.72
84267;BME280;74414;51.098;13.716;2024-03-25T11:23:53;99003.28;;;9.91;53.37
84267;BME280;74414;51.098;13.716;2024-03-25T11:26:22;99012.94;;;10.19;53.07
84267;BME280;74414;51.098;13.716;2024-03-25T11:28:49;99002.03;;;10.75;51.50
84267;BME280;74414;51.098;13.716;2024-03-25T11:31:15;99004.78;;;11.95;49.77
84267;BME280;74414;51.098;13.716;2024-03-25T11:33:41;99008.38;;;15.31;42.09
84267;BME280;74414;51.098;13.716;2024-03-25T11:36:07;99006.09;;;15.26;41.49
84267;BME280;74414;51.098;13.716;2024-03-25T11:38:32;99008.66;;;14.27;43.01
84267;BME280;74414;51.098;13.716;2024-03-25T11:40:58;98999.81;;;13.13;44.15
84267;BME280;74414;51.098;13.716;2024-03-25T11:43:23;99003.56;;;12.03;45.91
84267;BME280;74414;51.098;13.716;2024-03-25T11:45:49;99000.91;;;11.04;48.68
84267;BME280;74414;51.098;13.716;2024-03-25T11:48:18;98998.41;;;10.46;50.48
84267;BME280;74414;51.098;13.716;2024-03-25T11:50:46;99002.53;;;10.01;51.13
84267;BME280;74414;51.098;13.716;2024-03-25T11:53:15;99000.38;;;9.67;52.11
84267;BME280;74414;51.098;13.716;2024-03-25T11:55:45;99009.59;;;9.27;52.47
84267;BME280;74414;51.098;13.716;2024-03-25T11:58:11;99006.50;;;8.92;54.36
84267;BME280;74414;51.098;13.716;2024-03-25T12:00:45;99005.72;;;8.91;54.80
84267;BME280;74414;51.098;13.716;2024-03-25T12:03:13;99003.06;;;9.02;54.46
84267;BME280;74414;51.098;13.716;2024-03-25T12:05:39;99002.69;;;9.54;53.44
84267;BME280;74414;51.098;13.716;2024-03-25T12:08:08;99001.97;;;10.47;51.54
84267;BME280;74414;51.098;13.716;2024-03-25T12:10:35;99005.94;;;13.45;45.05
84267;BME280;74414;51.098;13.716;2024-03-25T12:13:20;99009.34;;;16.14;39.09
84267;BME280;74414;51.098;13.716;2024-03-25T12:15:45;99006.03;;;15.99;38.46
84267;BME280;74414;51.098;13.716;2024-03-25T12:18:11;98998.31;;;16.46;37.11
84267;BME280;74414;51.098;13.716;2024-03-25T12:20:36;99011.81;;;14.63;39.47
84267;BME280;74414;51.098;13.716;2024-03-25T12:23:02;99006.81;;;13.35;42.28
84267;BME280;74414;51.098;13.716;2024-03-25T12:25:27;99003.56;;;12.06;44.10
84267;BME280;74414;51.098;13.716;2024-03-25T12:27:53;99004.44;;;11.19;46.31
84267;BME280;74414;51.098;13.716;2024-03-25T12:30:19;99002.78;;;10.61;47.87
84267;BME280;74414;51.098;13.716;2024-03-25T12:32:45;99008.25;;;10.33;48.19
84267;BME280;74414;51.098;13.716;2024-03-25T12:35:15;99006.44;;;9.93;49.21
84267;BME280;74414;51.098;13.716;2024-03-25T12:37:47;99002.03;;;9.78;50.40
84267;BME280;74414;51.098;13.716;2024-03-25T12:40:24;99002.03;;;9.82;50.97
84267;BME280;74414;51.098;13.716;2024-03-25T12:42:52;99007.59;;;9.85;51.80
84267;BME280;74414;51.098;13.716;2024-03-25T12:45:17;99003.34;;;9.98;50.71
84267;BME280;74414;51.098;13.716;2024-03-25T12:47:43;99001.00;;;10.07;50.38
84267;BME280;74414;51.098;13.716;2024-03-25T12:50:08;99007.78;;;10.10;49.57
84267;BME280;74414;51.098;13.716;2024-03-25T12:52:34;99006.97;;;10.10;49.29
84267;BME280;74414;51.098;13.716;2024-03-25T12:54:59;99009.81;;;10.24;49.16
84267;BME280;74414;51.098;13.716;2024-03-25T12:57:25;99004.41;;;10.76;47.92
84267;BME280;74414;51.098;13.716;2024-03-25T12:59:50;98998.91;;;11.15;46.43